CheckWX is a tool to help pilots better visualize weather data.  It is not intended as a substitute for an official pre-flight weather briefing.

15:24:44 UTC

KTPA TAF
Tampa International Airport
Tampa, Florida, USA
KTPA 291120Z 2912/3018 14004KT P6SM FEW020 BKN100 FM291400 16006KT P6SM SCT025 SCT100 BKN250 FM291600 22007KT P6SM VCTS BKN040CB FM292200 28006KT P6SM SCT040 BKN150 FM300100 VRB03KT P6SM FEW040 SCT150 BKN250 FM301600 23007KT P6SM SCT040 SCT250

May-29@
12:00 UTC

May-29 @ 12:00 UTC

May-29@
14:00 UTC

May-29 @ 14:00 UTC

TAF KTPA 291120Z 2912/3018 14004KT P6SM FEW020 BKN100

Expired

Wind
  • 140° at 4 KTS
Cloud Levels
  • Few at 2,000' AGL
  • Broken at 10,000' AGL

May-29@
14:00 UTC

May-29 @ 14:00 UTC

May-29@
16:00 UTC

May-29 @ 16:00 UTC

FM291400 16006KT P6SM SCT025 SCT100 BKN250

Expired

Wind
  • 160° at 6 KTS
Cloud Levels
  • Scattered at 2,500' AGL
  • Scattered at 10,000' AGL
  • Broken at 25,000' AGL

May-29@
16:00 UTC

May-29 @ 16:00 UTC

May-29@
22:00 UTC

May-29 @ 22:00 UTC

FM291600 22007KT P6SM VCTS BKN040CB

Expired

Wind
  • 220° at 7 KTS
Conditions
Area Thunderstorm
Cloud Levels
  • Broken at 4,000' AGL

May-29@
22:00 UTC

May-29 @ 22:00 UTC

May-30@
01:00 UTC

May-30 @ 01:00 UTC

FM292200 28006KT P6SM SCT040 BKN150

Expired

Wind
  • 280° at 6 KTS
Cloud Levels
  • Scattered at 4,000' AGL
  • Broken at 15,000' AGL

May-30@
01:00 UTC

May-30 @ 01:00 UTC

May-30@
16:00 UTC

May-30 @ 16:00 UTC

FM300100 VRB03KT P6SM FEW040 SCT150 BKN250

From

From Standard forecast or significant change

Wind
  • Variable at 3 KTS
Cloud Levels
  • Few at 4,000' AGL
  • Scattered at 15,000' AGL
  • Broken at 25,000' AGL

May-30@
16:00 UTC

May-30 @ 16:00 UTC

May-30@
18:00 UTC

May-30 @ 18:00 UTC

FM301600 23007KT P6SM SCT040 SCT250

From

From Standard forecast or significant change

Wind
  • 230° at 7 KTS
Cloud Levels
  • Scattered at 4,000' AGL
  • Scattered at 25,000' AGL